sensor_id;sensor_type;location;lat;lon;timestamp;temperature;humidity
20722;DHT22;10522;52.198;9.890;2023-05-07T00:01:56;10.30;99.90
20722;DHT22;10522;52.198;9.890;2023-05-07T00:04:22;10.30;99.90
20722;DHT22;10522;52.198;9.890;2023-05-07T00:06:47;10.30;99.90
20722;DHT22;10522;52.198;9.890;2023-05-07T00:09:13;10.30;99.90
20722;DHT22;10522;52.198;9.890;2023-05-07T00:11:39;10.40;99.90
20722;DHT22;10522;52.198;9.890;2023-05-07T00:14:05;10.30;99.90
20722;DHT22;10522;52.198;9.890;2023-05-07T00:16:31;10.30;99.90
20722;DHT22;10522;52.198;9.890;2023-05-07T00:18:57;10.30;99.90
20722;DHT22;10522;52.198;9.890;2023-05-07T00:21:22;10.30;99.90
20722;DHT22;10522;52.198;9.890;2023-05-07T00:23:52;10.40;99.90
20722;DHT22;10522;52.198;9.890;2023-05-07T00:26:17;10.30;99.90
20722;DHT22;10522;52.198;9.890;2023-05-07T00:28:43;10.30;99.90
20722;DHT22;10522;52.198;9.890;2023-05-07T00:31:09;10.30;99.90
20722;DHT22;10522;52.198;9.890;2023-05-07T00:33:34;10.20;99.90
20722;DHT22;10522;52.198;9.890;2023-05-07T00:36:00;10.20;99.90
20722;DHT22;10522;52.198;9.890;2023-05-07T00:38:27;10.20;99.90
20722;DHT22;10522;52.198;9.890;2023-05-07T00:40:52;10.30;99.90
20722;DHT22;10522;52.198;9.890;2023-05-07T00:43:18;10.30;99.90
20722;DHT22;10522;52.198;9.890;2023-05-07T00:45:44;10.20;99.90
20722;DHT22;10522;52.198;9.890;2023-05-07T00:48:09;10.10;99.90
20722;DHT22;10522;52.198;9.890;2023-05-07T00:50:35;10.10;99.90
20722;DHT22;10522;52.198;9.890;2023-05-07T00:53:01;10.20;99.90
20722;DHT22;10522;52.198;9.890;2023-05-07T00:55:27;10.10;99.90
20722;DHT22;10522;52.198;9.890;2023-05-07T00:57:52;10.10;99.90
20722;DHT22;10522;52.198;9.890;2023-05-07T01:00:18;10.10;99.90
20722;DHT22;10522;52.198;9.890;2023-05-07T01:02:45;10.10;99.90
20722;DHT22;10522;52.198;9.890;2023-05-07T01:05:13;10.00;99.90
20722;DHT22;10522;52.198;9.890;2023-05-07T01:07:40;10.10;99.90
20722;DHT22;10522;52.198;9.890;2023-05-07T01:10:08;10.10;99.90
20722;DHT22;10522;52.198;9.890;2023-05-07T01:12:36;10.00;99.90
20722;DHT22;10522;52.198;9.890;2023-05-07T01:15:03;10.00;99.90
20722;DHT22;10522;52.198;9.890;2023-05-07T01:17:36;10.00;99.90
20722;DHT22;10522;52.198;9.890;2023-05-07T01:20:04;9.90;99.90
20722;DHT22;10522;52.198;9.890;2023-05-07T01:22:34;10.00;99.90
20722;DHT22;10522;52.198;9.890;2023-05-07T01:25:02;10.00;99.90
20722;DHT22;10522;52.198;9.890;2023-05-07T01:27:28;10.00;99.90
20722;DHT22;10522;52.198;9.890;2023-05-07T01:29:54;9.90;99.90
20722;DHT22;10522;52.198;9.890;2023-05-07T01:32:29;9.90;99.90
20722;DHT22;10522;52.198;9.890;2023-05-07T01:34:57;9.90;99.90
20722;DHT22;10522;52.198;9.890;2023-05-07T01:37:25;9.80;99.90
20722;DHT22;10522;52.198;9.890;2023-05-07T01:39:52;9.90;99.90
20722;DHT22;10522;52.198;9.890;2023-05-07T01:42:17;9.90;99.90
20722;DHT22;10522;52.198;9.890;2023-05-07T01:44:43;10.00;99.90
20722;DHT22;10522;52.198;9.890;2023-05-07T01:47:09;9.90;99.90
20722;DHT22;10522;52.198;9.890;2023-05-07T01:49:34;9.90;99.90
20722;DHT22;10522;52.198;9.890;2023-05-07T01:52:00;9.90;99.90
20722;DHT22;10522;52.198;9.890;2023-05-07T01:54:27;9.90;99.90
20722;DHT22;10522;52.198;9.890;2023-05-07T01:56:59;9.90;99.90
20722;DHT22;10522;52.198;9.890;2023-05-07T01:59:25;9.90;99.90
20722;DHT22;10522;52.198;9.890;2023-05-07T02:01:51;9.80;99.90
20722;DHT22;10522;52.198;9.890;2023-05-07T02:04:17;9.80;99.90
20722;DHT22;10522;52.198;9.890;2023-05-07T02:06:43;9.90;99.90
20722;DHT22;10522;52.198;9.890;2023-05-07T02:09:08;9.90;99.90
20722;DHT22;10522;52.198;9.890;2023-05-07T02:11:34;9.90;99.90
20722;DHT22;10522;52.198;9.890;2023-05-07T02:14:00;9.80;99.90
20722;DHT22;10522;52.198;9.890;2023-05-07T02:16:25;9.80;99.90
20722;DHT22;10522;52.198;9.890;2023-05-07T02:18:51;9.90;99.90
20722;DHT22;10522;52.198;9.890;2023-05-07T02:21:17;9.90;99.90
20722;DHT22;10522;52.198;9.890;2023-05-07T02:23:42;9.90;99.90
20722;DHT22;10522;52.198;9.890;2023-05-07T02:26:08;9.90;99.90
20722;DHT22;10522;52.198;9.890;2023-05-07T02:28:34;9.90;99.90
20722;DHT22;10522;52.198;9.890;2023-05-07T02:31:03;9.90;99.90
20722;DHT22;10522;52.198;9.890;2023-05-07T02:33:29;9.90;99.90
20722;DHT22;10522;52.198;9.890;2023-05-07T02:35:55;9.80;99.90
20722;DHT22;10522;52.198;9.890;2023-05-07T02:38:20;9.80;99.90
20722;DHT22;10522;52.198;9.890;2023-05-07T02:40:46;9.80;99.90
20722;DHT22;10522;52.198;9.890;2023-05-07T02:43:11;9.90;99.90
20722;DHT22;10522;52.198;9.890;2023-05-07T02:45:37;9.90;99.90
20722;DHT22;10522;52.198;9.890;2023-05-07T02:48:03;9.90;99.90
20722;DHT22;10522;52.198;9.890;2023-05-07T02:50:29;9.90;99.90
20722;DHT22;10522;52.198;9.890;2023-05-07T02:52:55;9.80;99.90
20722;DHT22;10522;52.198;9.890;2023-05-07T02:55:21;9.90;99.90
20722;DHT22;10522;52.198;9.890;2023-05-07T02:57:47;9.90;99.90
20722;DHT22;10522;52.198;9.890;2023-05-07T03:00:21;9.80;99.90
20722;DHT22;10522;52.198;9.890;2023-05-07T03:02:47;9.90;99.90
20722;DHT22;10522;52.198;9.890;2023-05-07T03:05:13;9.80;99.90
20722;DHT22;10522;52.198;9.890;2023-05-07T03:07:39;9.80;99.90
20722;DHT22;10522;52.198;9.890;2023-05-07T03:10:06;9.80;99.90
20722;DHT22;10522;52.198;9.890;2023-05-07T03:12:32;9.80;99.90
20722;DHT22;10522;52.198;9.890;2023-05-07T03:14:57;9.80;99.90
20722;DHT22;10522;52.198;9.890;2023-05-07T03:17:23;9.80;99.90
20722;DHT22;10522;52.198;9.890;2023-05-07T03:19:48;9.80;99.90
20722;DHT22;10522;52.198;9.890;2023-05-07T03:22:14;9.80;99.90
20722;DHT22;10522;52.198;9.890;2023-05-07T03:24:40;9.80;99.90
20722;DHT22;10522;52.198;9.890;2023-05-07T03:27:05;9.80;99.90
20722;DHT22;10522;52.198;9.890;2023-05-07T03:29:31;9.70;99.90
20722;DHT22;10522;52.198;9.890;2023-05-07T03:31:57;9.80;99.90
20722;DHT22;10522;52.198;9.890;2023-05-07T03:34:22;9.70;99.90
20722;DHT22;10522;52.198;9.890;2023-05-07T03:36:49;9.70;99.90
20722;DHT22;10522;52.198;9.890;2023-05-07T03:39:14;9.70;99.90
20722;DHT22;10522;52.198;9.890;2023-05-07T03:41:40;9.80;99.90
20722;DHT22;10522;52.198;9.890;2023-05-07T03:44:06;9.80;99.90
20722;DHT22;10522;52.198;9.890;2023-05-07T03:46:31;9.70;99.90
20722;DHT22;10522;52.198;9.890;2023-05-07T03:48:58;9.70;99.90
20722;DHT22;10522;52.198;9.890;2023-05-07T03:51:24;9.70;99.90
20722;DHT22;10522;52.198;9.890;2023-05-07T03:53:49;9.70;99.90
20722;DHT22;10522;52.198;9.890;2023-05-07T03:56:18;9.70;99.90
20722;DHT22;10522;52.198;9.890;2023-05-07T03:58:44;9.80;99.90
20722;DHT22;10522;52.198;9.890;2023-05-07T04:01:09;9.70;99.90
20722;DHT22;10522;52.198;9.890;2023-05-07T04:03:35;9.70;99.90
20722;DHT22;10522;52.198;9.890;2023-05-07T04:06:00;9.70;99.90
20722;DHT22;10522;52.198;9.890;2023-05-07T04:08:26;9.80;99.90
20722;DHT22;10522;52.198;9.890;2023-05-07T04:10:58;9.70;99.90
20722;DHT22;10522;52.198;9.890;2023-05-07T04:13:25;9.70;99.90
20722;DHT22;10522;52.198;9.890;2023-05-07T04:15:51;9.70;99.90
20722;DHT22;10522;52.198;9.890;2023-05-07T04:18:17;9.70;99.90
20722;DHT22;10522;52.198;9.890;2023-05-07T04:20:43;9.70;99.90
20722;DHT22;10522;52.198;9.890;2023-05-07T04:23:09;9.70;99.90
20722;DHT22;10522;52.198;9.890;2023-05-07T04:25:34;9.60;99.90
20722;DHT22;10522;52.198;9.890;2023-05-07T04:28:00;9.70;99.90
20722;DHT22;10522;52.198;9.890;2023-05-07T04:30:26;9.70;99.90
20722;DHT22;10522;52.198;9.890;2023-05-07T04:32:52;9.70;99.90
20722;DHT22;10522;52.198;9.890;2023-05-07T04:35:18;9.70;99.90
20722;DHT22;10522;52.198;9.890;2023-05-07T04:37:43;9.70;99.90
20722;DHT22;10522;52.198;9.890;2023-05-07T04:40:09;9.70;99.90
20722;DHT22;10522;52.198;9.890;2023-05-07T04:42:35;9.60;99.90
20722;DHT22;10522;52.198;9.890;2023-05-07T04:45:02;9.70;99.90
20722;DHT22;10522;52.198;9.890;2023-05-07T04:47:27;9.60;99.90
20722;DHT22;10522;52.198;9.890;2023-05-07T04:49:53;9.70;99.90
20722;DHT22;10522;52.198;9.890;2023-05-07T04:52:19;9.60;99.90
20722;DHT22;10522;52.198;9.890;2023-05-07T04:54:44;9.70;99.90
20722;DHT22;10522;52.198;9.890;2023-05-07T04:57:10;9.70;99.90
20722;DHT22;10522;52.198;9.890;2023-05-07T04:59:35;9.70;99.90
20722;DHT22;10522;52.198;9.890;2023-05-07T05:02:01;9.70;99.90
20722;DHT22;10522;52.198;9.890;2023-05-07T05:04:27;9.70;99.90
20722;DHT22;10522;52.198;9.890;2023-05-07T05:06:52;9.70;99.90
20722;DHT22;10522;52.198;9.890;2023-05-07T05:09:18;9.70;99.90
20722;DHT22;10522;52.198;9.890;2023-05-07T05:11:44;9.80;99.90
20722;DHT22;10522;52.198;9.890;2023-05-07T05:14:09;9.70;99.90
20722;DHT22;10522;52.198;9.890;2023-05-07T05:16:35;9.70;99.90
20722;DHT22;10522;52.198;9.890;2023-05-07T05:19:01;9.70;99.90
20722;DHT22;10522;52.198;9.890;2023-05-07T05:21:27;9.80;99.90
20722;DHT22;10522;52.198;9.890;2023-05-07T05:23:52;9.80;99.90
20722;DHT22;10522;52.198;9.890;2023-05-07T05:26:18;9.80;99.90
20722;DHT22;10522;52.198;9.890;2023-05-07T05:28:44;9.80;99.90
20722;DHT22;10522;52.198;9.890;2023-05-07T05:31:10;9.80;99.90
20722;DHT22;10522;52.198;9.890;2023-05-07T05:33:35;9.80;99.90
20722;DHT22;10522;52.198;9.890;2023-05-07T05:36:01;9.80;99.90
20722;DHT22;10522;52.198;9.890;2023-05-07T05:38:27;9.90;99.90
20722;DHT22;10522;52.198;9.890;2023-05-07T05:40:52;9.80;99.90
20722;DHT22;10522;52.198;9.890;2023-05-07T05:43:18;9.70;99.90
20722;DHT22;10522;52.198;9.890;2023-05-07T05:45:43;9.80;99.90
20722;DHT22;10522;52.198;9.890;2023-05-07T05:48:09;9.70;99.90
20722;DHT22;10522;52.198;9.890;2023-05-07T05:50:34;9.70;99.90
20722;DHT22;10522;52.198;9.890;2023-05-07T05:53:03;9.80;99.90
20722;DHT22;10522;52.198;9.890;2023-05-07T05:55:29;9.80;99.90
20722;DHT22;10522;52.198;9.890;2023-05-07T05:57:54;9.80;99.90
20722;DHT22;10522;52.198;9.890;2023-05-07T06:00:20;9.90;99.90
20722;DHT22;10522;52.198;9.890;2023-05-07T06:02:48;9.90;99.90
20722;DHT22;10522;52.198;9.890;2023-05-07T06:05:14;9.90;99.90
20722;DHT22;10522;52.198;9.890;2023-05-07T06:07:40;9.90;99.90
20722;DHT22;10522;52.198;9.890;2023-05-07T06:10:06;10.00;99.90
20722;DHT22;10522;52.198;9.890;2023-05-07T06:12:32;10.10;99.90
20722;DHT22;10522;52.198;9.890;2023-05-07T06:14:57;10.20;99.90
20722;DHT22;10522;52.198;9.890;2023-05-07T06:17:23;10.20;99.90
20722;DHT22;10522;52.198;9.890;2023-05-07T06:19:48;10.20;99.90
20722;DHT22;10522;52.198;9.890;2023-05-07T06:22:14;10.30;99.90
20722;DHT22;10522;52.198;9.890;2023-05-07T06:24:40;10.20;99.90
20722;DHT22;10522;52.198;9.890;2023-05-07T06:27:05;10.30;99.90
20722;DHT22;10522;52.198;9.890;2023-05-07T06:29:31;10.40;99.90
20722;DHT22;10522;52.198;9.890;2023-05-07T06:32:13;10.40;99.90
20722;DHT22;10522;52.198;9.890;2023-05-07T06:34:39;10.40;99.90
20722;DHT22;10522;52.198;9.890;2023-05-07T06:37:05;10.50;99.90
20722;DHT22;10522;52.198;9.890;2023-05-07T06:39:31;10.60;99.90
20722;DHT22;10522;52.198;9.890;2023-05-07T06:41:57;10.50;99.90
20722;DHT22;10522;52.198;9.890;2023-05-07T06:44:23;10.60;99.90
20722;DHT22;10522;52.198;9.890;2023-05-07T06:46:48;10.70;99.90
20722;DHT22;10522;52.198;9.890;2023-05-07T06:49:14;10.80;99.90
20722;DHT22;10522;52.198;9.890;2023-05-07T06:51:40;10.90;99.90
20722;DHT22;10522;52.198;9.890;2023-05-07T06:54:06;10.90;99.90
20722;DHT22;10522;52.198;9.890;2023-05-07T06:56:32;11.10;99.90
20722;DHT22;10522;52.198;9.890;2023-05-07T06:58:59;11.00;99.90
20722;DHT22;10522;52.198;9.890;2023-05-07T07:01:24;11.00;99.90
20722;DHT22;10522;52.198;9.890;2023-05-07T07:03:50;11.00;99.90
20722;DHT22;10522;52.198;9.890;2023-05-07T07:06:16;11.10;99.90
20722;DHT22;10522;52.198;9.890;2023-05-07T07:08:42;11.10;99.90
20722;DHT22;10522;52.198;9.890;2023-05-07T07:11:08;11.20;99.90
20722;DHT22;10522;52.198;9.890;2023-05-07T07:13:34;11.20;99.90
20722;DHT22;10522;52.198;9.890;2023-05-07T07:16:00;11.30;99.90
20722;DHT22;10522;52.198;9.890;2023-05-07T07:18:25;11.40;99.90
20722;DHT22;10522;52.198;9.890;2023-05-07T07:20:51;11.30;99.90
20722;DHT22;10522;52.198;9.890;2023-05-07T07:23:17;11.30;99.90
20722;DHT22;10522;52.198;9.890;2023-05-07T07:25:42;11.50;99.90
20722;DHT22;10522;52.198;9.890;2023-05-07T07:28:08;11.60;99.90
20722;DHT22;10522;52.198;9.890;2023-05-07T07:30:33;11.80;99.90
20722;DHT22;10522;52.198;9.890;2023-05-07T07:32:59;12.00;99.90
20722;DHT22;10522;52.198;9.890;2023-05-07T07:35:32;12.20;99.90
20722;DHT22;10522;52.198;9.890;2023-05-07T07:37:58;12.30;99.90
20722;DHT22;10522;52.198;9.890;2023-05-07T07:40:23;12.40;99.90
20722;DHT22;10522;52.198;9.890;2023-05-07T07:42:50;12.40;99.90
20722;DHT22;10522;52.198;9.890;2023-05-07T07:45:16;12.40;99.90
20722;DHT22;10522;52.198;9.890;2023-05-07T07:47:41;12.50;99.90
20722;DHT22;10522;52.198;9.890;2023-05-07T07:50:08;12.70;99.90
20722;DHT22;10522;52.198;9.890;2023-05-07T07:52:34;12.50;99.90
20722;DHT22;10522;52.198;9.890;2023-05-07T07:54:59;12.30;99.90
20722;DHT22;10522;52.198;9.890;2023-05-07T07:57:25;12.30;99.90
20722;DHT22;10522;52.198;9.890;2023-05-07T07:59:51;12.30;99.90
20722;DHT22;10522;52.198;9.890;2023-05-07T08:02:16;12.40;99.90
20722;DHT22;10522;52.198;9.890;2023-05-07T08:04:42;12.30;99.90
20722;DHT22;10522;52.198;9.890;2023-05-07T08:07:09;12.30;99.90
20722;DHT22;10522;52.198;9.890;2023-05-07T08:09:35;12.20;99.90
20722;DHT22;10522;52.198;9.890;2023-05-07T08:12:01;11.90;99.90
20722;DHT22;10522;52.198;9.890;2023-05-07T08:14:27;12.10;99.90
20722;DHT22;10522;52.198;9.890;2023-05-07T08:16:54;12.00;99.90
20722;DHT22;10522;52.198;9.890;2023-05-07T08:19:20;11.90;99.90
20722;DHT22;10522;52.198;9.890;2023-05-07T08:21:45;12.00;99.90
20722;DHT22;10522;52.198;9.890;2023-05-07T08:24:13;12.10;99.90
20722;DHT22;10522;52.198;9.890;2023-05-07T08:26:39;12.20;99.90
20722;DHT22;10522;52.198;9.890;2023-05-07T08:29:05;12.30;99.90
20722;DHT22;10522;52.198;9.890;2023-05-07T08:31:31;12.30;99.90
20722;DHT22;10522;52.198;9.890;2023-05-07T08:33:57;12.10;99.90
20722;DHT22;10522;52.198;9.890;2023-05-07T08:36:23;12.10;99.90
20722;DHT22;10522;52.198;9.890;2023-05-07T08:38:49;12.20;99.90
20722;DHT22;10522;52.198;9.890;2023-05-07T08:41:15;12.40;99.90
20722;DHT22;10522;52.198;9.890;2023-05-07T08:43:41;12.50;99.90
20722;DHT22;10522;52.198;9.890;2023-05-07T08:46:09;12.50;99.90
20722;DHT22;10522;52.198;9.890;2023-05-07T08:48:36;12.60;99.90
20722;DHT22;10522;52.198;9.890;2023-05-07T08:51:02;12.50;99.90
20722;DHT22;10522;52.198;9.890;2023-05-07T08:53:28;12.50;99.90
20722;DHT22;10522;52.198;9.890;2023-05-07T08:55:53;12.40;99.90
20722;DHT22;10522;52.198;9.890;2023-05-07T08:58:19;12.70;99.90
20722;DHT22;10522;52.198;9.890;2023-05-07T09:00:46;12.60;99.90
20722;DHT22;10522;52.198;9.890;2023-05-07T09:03:12;12.60;99.90
20722;DHT22;10522;52.198;9.890;2023-05-07T09:05:38;12.50;99.90
20722;DHT22;10522;52.198;9.890;2023-05-07T09:08:05;12.70;99.90
20722;DHT22;10522;52.198;9.890;2023-05-07T09:10:33;12.60;99.90
20722;DHT22;10522;52.198;9.890;2023-05-07T09:12:59;12.60;99.90
20722;DHT22;10522;52.198;9.890;2023-05-07T09:15:28;12.70;99.90
20722;DHT22;10522;52.198;9.890;2023-05-07T09:17:53;12.80;99.90
20722;DHT22;10522;52.198;9.890;2023-05-07T09:20:19;12.90;99.90
20722;DHT22;10522;52.198;9.890;2023-05-07T09:22:45;12.80;99.90
20722;DHT22;10522;52.198;9.890;2023-05-07T09:25:11;13.10;99.90
20722;DHT22;10522;52.198;9.890;2023-05-07T09:27:36;12.90;99.90
20722;DHT22;10522;52.198;9.890;2023-05-07T09:30:09;12.80;99.90
20722;DHT22;10522;52.198;9.890;2023-05-07T09:32:35;12.90;99.90
20722;DHT22;10522;52.198;9.890;2023-05-07T09:35:03;13.00;99.90
20722;DHT22;10522;52.198;9.890;2023-05-07T09:37:31;12.80;99.90
20722;DHT22;10522;52.198;9.890;2023-05-07T09:39:56;12.80;99.90
20722;DHT22;10522;52.198;9.890;2023-05-07T09:42:25;12.70;99.90
20722;DHT22;10522;52.198;9.890;2023-05-07T09:44:53;12.60;99.90
20722;DHT22;10522;52.198;9.890;2023-05-07T09:47:20;12.60;99.90
20722;DHT22;10522;52.198;9.890;2023-05-07T09:49:48;12.60;99.90
20722;DHT22;10522;52.198;9.890;2023-05-07T09:52:16;12.70;99.90
20722;DHT22;10522;52.198;9.890;2023-05-07T09:54:43;12.70;99.90
20722;DHT22;10522;52.198;9.890;2023-05-07T09:57:11;12.60;99.90
20722;DHT22;10522;52.198;9.890;2023-05-07T09:59:38;12.70;99.90
20722;DHT22;10522;52.198;9.890;2023-05-07T10:02:04;12.80;99.90
20722;DHT22;10522;52.198;9.890;2023-05-07T10:04:31;12.90;99.90
20722;DHT22;10522;52.198;9.890;2023-05-07T10:06:58;13.10;99.90
20722;DHT22;10522;52.198;9.890;2023-05-07T10:09:26;13.20;99.90
20722;DHT22;10522;52.198;9.890;2023-05-07T10:11:52;13.30;99.90
20722;DHT22;10522;52.198;9.890;2023-05-07T10:14:21;13.30;99.90
20722;DHT22;10522;52.198;9.890;2023-05-07T10:16:47;13.20;99.90
20722;DHT22;10522;52.198;9.890;2023-05-07T10:19:14;13.10;99.90
20722;DHT22;10522;52.198;9.890;2023-05-07T10:21:55;13.10;99.90
20722;DHT22;10522;52.198;9.890;2023-05-07T10:24:26;13.30;99.90
20722;DHT22;10522;52.198;9.890;2023-05-07T10:26:53;13.20;99.90
20722;DHT22;10522;52.198;9.890;2023-05-07T10:34:43;13.30;99.90
20722;DHT22;10522;52.198;9.890;2023-05-07T10:37:11;13.30;99.90
20722;DHT22;10522;52.198;9.890;2023-05-07T10:39:37;13.30;99.90
20722;DHT22;10522;52.198;9.890;2023-05-07T10:42:13;13.10;99.90
20722;DHT22;10522;52.198;9.890;2023-05-07T10:44:39;13.10;99.90
20722;DHT22;10522;52.198;9.890;2023-05-07T10:47:08;13.40;99.90
20722;DHT22;10522;52.198;9.890;2023-05-07T10:52:21;13.70;99.90
20722;DHT22;10522;52.198;9.890;2023-05-07T10:55:27;13.80;99.90
20722;DHT22;10522;52.198;9.890;2023-05-07T10:57:53;13.90;99.90
20722;DHT22;10522;52.198;9.890;2023-05-07T11:05:26;14.50;99.90
20722;DHT22;10522;52.198;9.890;2023-05-07T11:07:56;14.40;99.90
20722;DHT22;10522;52.198;9.890;2023-05-07T11:10:22;14.60;99.90
20722;DHT22;10522;52.198;9.890;2023-05-07T11:12:49;14.30;99.90
20722;DHT22;10522;52.198;9.890;2023-05-07T11:15:33;14.30;99.90
20722;DHT22;10522;52.198;9.890;2023-05-07T11:17:59;14.10;99.90
20722;DHT22;10522;52.198;9.890;2023-05-07T11:20:56;14.30;99.90
20722;DHT22;10522;52.198;9.890;2023-05-07T11:26:08;14.10;99.90
20722;DHT22;10522;52.198;9.890;2023-05-07T11:28:41;14.10;99.90
20722;DHT22;10522;52.198;9.890;2023-05-07T11:31:08;14.00;99.90
20722;DHT22;10522;52.198;9.890;2023-05-07T11:33:34;14.10;99.90
20722;DHT22;10522;52.198;9.890;2023-05-07T11:36:02;14.20;99.90
20722;DHT22;10522;52.198;9.890;2023-05-07T11:38:29;14.30;99.90
20722;DHT22;10522;52.198;9.890;2023-05-07T11:40:59;14.20;99.90
20722;DHT22;10522;52.198;9.890;2023-05-07T11:43:30;14.10;99.90
20722;DHT22;10522;52.198;9.890;2023-05-07T11:46:08;14.10;99.90
20722;DHT22;10522;52.198;9.890;2023-05-07T11:48:34;14.30;99.90
20722;DHT22;10522;52.198;9.890;2023-05-07T11:51:04;14.30;99.90
20722;DHT22;10522;52.198;9.890;2023-05-07T11:53:39;14.50;99.90
20722;DHT22;10522;52.198;9.890;2023-05-07T11:56:14;14.60;99.90
20722;DHT22;10522;52.198;9.890;2023-05-07T11:58:41;14.60;99.90
20722;DHT22;10522;52.198;9.890;2023-05-07T12:01:08;14.70;99.90
20722;DHT22;10522;52.198;9.890;2023-05-07T12:03:37;14.80;99.90
20722;DHT22;10522;52.198;9.890;2023-05-07T12:06:08;15.00;99.90
20722;DHT22;10522;52.198;9.890;2023-05-07T12:08:37;15.00;99.90
20722;DHT22;10522;52.198;9.890;2023-05-07T12:11:13;15.20;99.90
20722;DHT22;10522;52.198;9.890;2023-05-07T12:13:38;14.90;99.90
20722;DHT22;10522;52.198;9.890;2023-05-07T12:16:05;14.90;99.90
20722;DHT22;10522;52.198;9.890;2023-05-07T12:18:32;14.80;99.90
20722;DHT22;10522;52.198;9.890;2023-05-07T12:20:59;15.00;99.90
20722;DHT22;10522;52.198;9.890;2023-05-07T12:23:24;15.30;99.90
20722;DHT22;10522;52.198;9.890;2023-05-07T12:25:50;15.10;99.90
20722;DHT22;10522;52.198;9.890;2023-05-07T12:28:17;15.20;99.90
20722;DHT22;10522;52.198;9.890;2023-05-07T12:30:48;15.00;99.90
20722;DHT22;10522;52.198;9.890;2023-05-07T12:33:19;15.10;99.90
20722;DHT22;10522;52.198;9.890;2023-05-07T12:35:47;15.20;99.90
20722;DHT22;10522;52.198;9.890;2023-05-07T12:38:14;15.30;99.90
20722;DHT22;10522;52.198;9.890;2023-05-07T12:40:43;15.40;99.90
20722;DHT22;10522;52.198;9.890;2023-05-07T12:43:27;15.40;99.90
20722;DHT22;10522;52.198;9.890;2023-05-07T12:45:55;15.20;99.90
20722;DHT22;10522;52.198;9.890;2023-05-07T12:48:22;15.10;99.90
20722;DHT22;10522;52.198;9.890;2023-05-07T12:50:50;15.10;99.90
20722;DHT22;10522;52.198;9.890;2023-05-07T12:53:15;15.00;99.90
20722;DHT22;10522;52.198;9.890;2023-05-07T12:55:46;15.10;99.90
20722;DHT22;10522;52.198;9.890;2023-05-07T13:00:42;15.10;99.90
20722;DHT22;10522;52.198;9.890;2023-05-07T13:03:08;15.50;99.90
20722;DHT22;10522;52.198;9.890;2023-05-07T13:05:34;15.70;99.90
20722;DHT22;10522;52.198;9.890;2023-05-07T13:08:00;16.50;99.90
20722;DHT22;10522;52.198;9.890;2023-05-07T13:10:27;16.80;99.90
20722;DHT22;10522;52.198;9.890;2023-05-07T13:12:52;17.00;99.90
20722;DHT22;10522;52.198;9.890;2023-05-07T13:15:18;16.90;99.90
20722;DHT22;10522;52.198;9.890;2023-05-07T13:17:44;17.30;99.90
20722;DHT22;10522;52.198;9.890;2023-05-07T13:20:10;17.20;99.90
20722;DHT22;10522;52.198;9.890;2023-05-07T13:22:37;16.80;99.90
20722;DHT22;10522;52.198;9.890;2023-05-07T13:25:02;17.00;99.90
20722;DHT22;10522;52.198;9.890;2023-05-07T13:27:28;16.80;99.90
20722;DHT22;10522;52.198;9.890;2023-05-07T13:29:56;16.70;99.90
20722;DHT22;10522;52.198;9.890;2023-05-07T13:32:22;16.90;99.90
20722;DHT22;10522;52.198;9.890;2023-05-07T13:34:47;16.80;99.90
20722;DHT22;10522;52.198;9.890;2023-05-07T13:37:13;16.90;99.90
20722;DHT22;10522;52.198;9.890;2023-05-07T13:39:39;16.80;99.90
20722;DHT22;10522;52.198;9.890;2023-05-07T13:42:04;16.60;99.90
20722;DHT22;10522;52.198;9.890;2023-05-07T13:44:30;16.20;99.90
20722;DHT22;10522;52.198;9.890;2023-05-07T13:46:55;16.10;99.90
20722;DHT22;10522;52.198;9.890;2023-05-07T13:49:21;16.20;99.90
20722;DHT22;10522;52.198;9.890;2023-05-07T13:51:46;16.60;99.90
20722;DHT22;10522;52.198;9.890;2023-05-07T13:54:12;16.60;99.90
20722;DHT22;10522;52.198;9.890;2023-05-07T13:56:38;16.70;99.90
20722;DHT22;10522;52.198;9.890;2023-05-07T13:59:03;16.90;99.90
20722;DHT22;10522;52.198;9.890;2023-05-07T14:01:30;16.60;99.90
20722;DHT22;10522;52.198;9.890;2023-05-07T14:03:56;16.70;99.90
20722;DHT22;10522;52.198;9.890;2023-05-07T14:06:25;16.80;99.90
20722;DHT22;10522;52.198;9.890;2023-05-07T14:08:51;17.00;99.90
20722;DHT22;10522;52.198;9.890;2023-05-07T14:11:17;17.10;99.90
20722;DHT22;10522;52.198;9.890;2023-05-07T14:13:42;16.80;99.90
20722;DHT22;10522;52.198;9.890;2023-05-07T14:16:08;17.00;99.90
20722;DHT22;10522;52.198;9.890;2023-05-07T14:18:33;17.10;99.90
20722;DHT22;10522;52.198;9.890;2023-05-07T14:21:01;17.20;99.90
20722;DHT22;10522;52.198;9.890;2023-05-07T14:23:27;17.50;99.90
20722;DHT22;10522;52.198;9.890;2023-05-07T14:25:53;17.40;99.90
20722;DHT22;10522;52.198;9.890;2023-05-07T14:28:19;17.40;99.90
20722;DHT22;10522;52.198;9.890;2023-05-07T14:30:44;17.20;99.90
20722;DHT22;10522;52.198;9.890;2023-05-07T14:33:10;17.10;99.90
20722;DHT22;10522;52.198;9.890;2023-05-07T14:35:36;17.20;99.90
20722;DHT22;10522;52.198;9.890;2023-05-07T14:38:01;17.30;99.90
20722;DHT22;10522;52.198;9.890;2023-05-07T14:40:27;17.10;99.90
20722;DHT22;10522;52.198;9.890;2023-05-07T14:42:52;17.00;99.90
20722;DHT22;10522;52.198;9.890;2023-05-07T14:45:18;17.20;99.90
20722;DHT22;10522;52.198;9.890;2023-05-07T14:47:43;16.90;99.90
20722;DHT22;10522;52.198;9.890;2023-05-07T14:50:09;17.40;99.90
20722;DHT22;10522;52.198;9.890;2023-05-07T14:52:35;17.30;99.90
20722;DHT22;10522;52.198;9.890;2023-05-07T14:55:00;17.60;99.90
20722;DHT22;10522;52.198;9.890;2023-05-07T14:57:26;17.70;99.90
20722;DHT22;10522;52.198;9.890;2023-05-07T14:59:52;17.60;99.90
20722;DHT22;10522;52.198;9.890;2023-05-07T15:02:17;17.40;99.90
20722;DHT22;10522;52.198;9.890;2023-05-07T15:04:43;17.40;99.90
20722;DHT22;10522;52.198;9.890;2023-05-07T15:07:12;17.00;99.90
20722;DHT22;10522;52.198;9.890;2023-05-07T15:09:43;17.00;99.90
20722;DHT22;10522;52.198;9.890;2023-05-07T15:12:09;17.10;99.90
20722;DHT22;10522;52.198;9.890;2023-05-07T15:14:35;17.30;99.90
20722;DHT22;10522;52.198;9.890;2023-05-07T15:17:01;17.30;99.90
20722;DHT22;10522;52.198;9.890;2023-05-07T15:19:26;17.60;99.90
20722;DHT22;10522;52.198;9.890;2023-05-07T15:21:58;17.70;99.90
20722;DHT22;10522;52.198;9.890;2023-05-07T15:24:25;18.20;99.90
20722;DHT22;10522;52.198;9.890;2023-05-07T15:26:52;18.30;99.90
20722;DHT22;10522;52.198;9.890;2023-05-07T15:29:17;18.10;99.90
20722;DHT22;10522;52.198;9.890;2023-05-07T15:31:43;17.60;99.90
20722;DHT22;10522;52.198;9.890;2023-05-07T15:34:08;17.50;99.90
20722;DHT22;10522;52.198;9.890;2023-05-07T15:36:35;17.50;99.90
20722;DHT22;10522;52.198;9.890;2023-05-07T15:39:01;17.30;99.90
20722;DHT22;10522;52.198;9.890;2023-05-07T15:41:28;17.70;99.90
20722;DHT22;10522;52.198;9.890;2023-05-07T15:43:54;17.50;99.90
20722;DHT22;10522;52.198;9.890;2023-05-07T15:46:21;17.50;99.90
20722;DHT22;10522;52.198;9.890;2023-05-07T15:48:48;17.70;99.90
20722;DHT22;10522;52.198;9.890;2023-05-07T15:51:14;17.70;99.90